Time;durP1;ratioP1;P1;durP2;ratioP2;P2;SDS_P1;SDS_P2;PMS_P1;PMS_P2;Temp;Humidity;BMP_temperature;BMP_pressure;BME280_temperature;BME280_humidity;BME280_pressure;Samples;Min_cycle;Max_cycle;Signal;HPM_P1;HPM_P2
2023/10/17 00:00:42;;;;;;;7.15;6.45;;;7.40;99.90;;;;;;5003482;28;20443;-71
2023/10/17 00:03:11;;;;;;;6.97;5.90;;;7.40;99.90;;;;;;4999046;28;20436;-71
2023/10/17 00:05:37;;;;;;;7.55;6.10;;;7.30;99.90;;;;;;5001816;28;20444;-71
2023/10/17 00:08:09;;;;;;;6.53;5.93;;;7.30;99.90;;;;;;5002788;28;20452;-72
2023/10/17 00:10:37;;;;;;;6.32;5.82;;;7.30;99.90;;;;;;4999114;28;20440;-72
2023/10/17 00:13:20;;;;;;;6.95;6.28;;;7.30;99.90;;;;;;4996401;28;20428;-72
2023/10/17 00:15:47;;;;;;;6.50;5.80;;;7.30;99.90;;;;;;5001319;28;21083;-71
2023/10/17 00:18:17;;;;;;;6.65;5.60;;;7.30;99.90;;;;;;5000158;28;20469;-71
2023/10/17 00:20:44;;;;;;;6.93;6.30;;;7.30;99.90;;;;;;4999711;28;20424;-72
2023/10/17 00:23:15;;;;;;;6.80;6.07;;;7.30;99.90;;;;;;4998512;28;20434;-71
2023/10/17 00:25:45;;;;;;;6.38;5.78;;;7.20;99.90;;;;;;5003313;28;20436;-72
2023/10/17 00:28:13;;;;;;;7.00;6.30;;;7.20;99.90;;;;;;5001517;28;20440;-71
2023/10/17 00:30:41;;;;;;;6.70;6.20;;;7.20;99.90;;;;;;5003576;28;20436;-71
2023/10/17 00:33:09;;;;;;;6.38;5.50;;;7.10;99.90;;;;;;5004310;28;20428;-71
2023/10/17 00:35:38;;;;;;;6.28;5.78;;;7.10;99.90;;;;;;5004991;28;20430;-71
2023/10/17 00:38:07;;;;;;;6.87;5.80;;;7.10;99.90;;;;;;5005484;28;20444;-72
2023/10/17 00:40:45;;;;;;;6.40;5.80;;;7.10;99.90;;;;;;5006551;28;20432;-73
2023/10/17 00:43:12;;;;;;;6.10;5.35;;;7.00;99.90;;;;;;5003981;28;20876;-72
2023/10/17 00:45:40;;;;;;;5.90;5.30;;;7.00;99.90;;;;;;5003921;28;20432;-71
2023/10/17 00:48:09;;;;;;;6.43;5.83;;;6.90;99.90;;;;;;5001098;28;20464;-71
2023/10/17 00:50:37;;;;;;;6.03;5.47;;;6.90;99.90;;;;;;5002841;28;20520;-71
2023/10/17 00:53:06;;;;;;;6.20;5.60;;;6.80;99.90;;;;;;5002763;28;20441;-71
2023/10/17 00:55:37;;;;;;;6.28;5.70;;;6.80;99.90;;;;;;5004922;28;20436;-71
2023/10/17 00:58:06;;;;;;;6.13;5.53;;;6.80;99.90;;;;;;5002956;28;20843;-70
2023/10/17 01:00:36;;;;;;;6.10;5.50;;;6.80;99.90;;;;;;5006146;28;20440;-71
2023/10/17 01:03:10;;;;;;;6.60;6.00;;;6.80;99.90;;;;;;5006491;28;20471;-71
2023/10/17 01:05:57;;;;;;;6.63;5.40;;;6.80;99.90;;;;;;5002435;28;20435;-71
2023/10/17 01:08:39;;;;;;;6.30;5.70;;;6.80;99.90;;;;;;5003304;28;20530;-70
2023/10/17 01:11:15;;;;;;;5.80;5.20;;;6.80;99.90;;;;;;5004221;28;20448;-71
2023/10/17 01:13:41;;;;;;;5.88;5.20;;;6.80;99.90;;;;;;5005051;28;20537;-70
2023/10/17 01:16:10;;;;;;;6.20;5.50;;;6.80;99.90;;;;;;4999405;28;20444;-70
2023/10/17 01:18:37;;;;;;;5.97;4.95;;;6.80;99.90;;;;;;5002323;28;20502;-71
2023/10/17 01:21:05;;;;;;;5.38;4.88;;;6.80;99.90;;;;;;5002983;28;20448;-71
2023/10/17 01:23:31;;;;;;;5.90;5.30;;;6.90;99.90;;;;;;5005161;28;20440;-71
2023/10/17 01:26:04;;;;;;;5.20;4.70;;;6.90;99.90;;;;;;5005716;28;20504;-71
2023/10/17 01:28:31;;;;;;;6.55;5.78;;;6.90;99.90;;;;;;5006488;28;20425;-70
2023/10/17 01:31:01;;;;;;;5.70;5.05;;;6.90;99.90;;;;;;4999327;28;20447;-71
2023/10/17 01:33:29;;;;;;;5.38;4.88;;;6.90;99.90;;;;;;5002923;28;20442;-69
2023/10/17 01:35:58;;;;;;;5.53;5.00;;;7.00;99.90;;;;;;4999482;28;20515;-70
2023/10/17 01:38:26;;;;;;;5.55;5.05;;;7.00;99.90;;;;;;5002174;28;20433;-70
2023/10/17 01:40:54;;;;;;;6.28;5.00;;;7.00;99.90;;;;;;5004878;28;20532;-70
2023/10/17 01:43:22;;;;;;;5.75;5.13;;;7.00;99.90;;;;;;5003956;28;20475;-72
2023/10/17 01:45:50;;;;;;;5.60;5.10;;;7.00;99.90;;;;;;5004588;28;20502;-72
2023/10/17 01:48:21;;;;;;;6.15;5.10;;;7.00;99.90;;;;;;4999761;28;20816;-70
2023/10/17 01:50:48;;;;;;;5.53;5.03;;;7.00;99.90;;;;;;5002471;28;20476;-71
2023/10/17 01:53:15;;;;;;;5.60;4.93;;;7.00;99.90;;;;;;5003242;28;20532;-71
2023/10/17 01:55:45;;;;;;;5.53;5.03;;;7.00;99.90;;;;;;5004833;28;20436;-73
2023/10/17 01:58:15;;;;;;;7.13;5.20;;;7.00;99.90;;;;;;5005080;28;20495;-71
2023/10/17 02:00:43;;;;;;;5.80;5.20;;;7.00;99.90;;;;;;5004322;28;20487;-73
2023/10/17 02:03:12;;;;;;;5.50;4.30;;;7.10;99.90;;;;;;4998839;28;20439;-73
2023/10/17 02:05:39;;;;;;;6.07;4.90;;;7.00;99.90;;;;;;5000889;28;20964;-71
2023/10/17 02:08:06;;;;;;;5.45;4.70;;;7.10;99.90;;;;;;5001794;28;20437;-72
2023/10/17 02:10:33;;;;;;;5.50;5.00;;;7.10;99.90;;;;;;5002950;28;20436;-69
2023/10/17 02:13:00;;;;;;;5.45;5.03;;;7.10;99.90;;;;;;5003794;28;20794;-73
2023/10/17 02:15:30;;;;;;;5.68;4.90;;;7.10;99.90;;;;;;4998406;28;20523;-71
2023/10/17 02:17:58;;;;;;;6.23;5.00;;;7.10;99.90;;;;;;4999806;28;20439;-70
2023/10/17 02:20:29;;;;;;;5.60;4.57;;;7.10;99.90;;;;;;5001890;28;20425;-71
2023/10/17 02:22:57;;;;;;;5.45;4.90;;;7.00;99.90;;;;;;5001301;28;20515;-70
2023/10/17 02:25:31;;;;;;;7.78;5.00;;;7.00;99.90;;;;;;5002045;28;20862;-71
2023/10/17 02:27:59;;;;;;;5.25;4.43;;;7.00;99.90;;;;;;5000679;28;20441;-71
2023/10/17 02:30:25;;;;;;;5.93;5.20;;;7.00;99.90;;;;;;4998530;28;20878;-71
2023/10/17 02:32:53;;;;;;;5.72;5.10;;;7.00;99.90;;;;;;5004804;28;20448;-70
2023/10/17 02:35:28;;;;;;;5.97;4.80;;;7.00;99.90;;;;;;5003643;28;20444;-73
2023/10/17 02:37:57;;;;;;;5.30;4.80;;;7.00;99.90;;;;;;5002174;28;20711;-70
2023/10/17 02:40:24;;;;;;;5.47;4.97;;;7.00;99.90;;;;;;5001909;28;20448;-71
2023/10/17 02:42:51;;;;;;;6.32;4.65;;;7.00;99.90;;;;;;5002823;28;20522;-71
2023/10/17 02:45:24;;;;;;;5.20;4.70;;;7.00;99.90;;;;;;5001182;28;20462;-70
2023/10/17 02:47:53;;;;;;;5.80;4.78;;;7.00;99.90;;;;;;5000451;28;20432;-70
2023/10/17 02:50:41;;;;;;;5.05;4.60;;;7.10;99.90;;;;;;5000723;28;20463;-71
2023/10/17 02:53:11;;;;;;;5.35;4.85;;;7.10;99.90;;;;;;5003911;28;20442;-70
2023/10/17 02:55:38;;;;;;;4.60;4.20;;;7.10;99.90;;;;;;5002200;28;20447;-70
2023/10/17 02:58:05;;;;;;;4.93;4.53;;;7.10;99.90;;;;;;5000586;28;20426;-71
2023/10/17 03:00:34;;;;;;;6.20;4.72;;;7.10;99.90;;;;;;4999601;28;20448;-70
2023/10/17 03:03:11;;;;;;;5.10;4.60;;;7.10;99.90;;;;;;4999800;28;20434;-71
2023/10/17 03:05:41;;;;;;;5.10;4.60;;;7.10;99.90;;;;;;5003735;28;20555;-71
2023/10/17 03:08:15;;;;;;;4.80;4.30;;;7.10;99.90;;;;;;5001368;28;20504;-71
2023/10/17 03:10:42;;;;;;;4.80;4.30;;;7.20;99.90;;;;;;5001408;28;20447;-71
2023/10/17 03:13:23;;;;;;;4.63;4.22;;;7.20;99.90;;;;;;5000263;28;20465;-71
2023/10/17 03:15:54;;;;;;;6.35;5.00;;;7.20;99.90;;;;;;5001254;28;20494;-71
2023/10/17 03:18:21;;;;;;;4.50;4.10;;;7.20;99.90;;;;;;5003178;28;20448;-71
2023/10/17 03:20:51;;;;;;;4.90;4.40;;;7.20;99.90;;;;;;5002610;28;20429;-71
2023/10/17 03:23:18;;;;;;;5.05;4.40;;;7.20;99.90;;;;;;5003381;28;20646;-71
2023/10/17 03:25:46;;;;;;;4.95;4.45;;;7.20;99.90;;;;;;5002930;28;20535;-71
2023/10/17 03:28:13;;;;;;;5.32;4.70;;;7.20;99.90;;;;;;5000330;28;20515;-71
2023/10/17 03:30:40;;;;;;;5.63;4.53;;;7.20;99.90;;;;;;5001700;28;20425;-71
2023/10/17 03:33:08;;;;;;;4.80;4.30;;;7.20;99.90;;;;;;5001165;28;20455;-71
2023/10/17 03:35:42;;;;;;;5.25;4.60;;;7.20;99.90;;;;;;5002005;28;22123;-71
2023/10/17 03:38:14;;;;;;;5.50;4.35;;;7.20;99.90;;;;;;5000412;28;20433;-71
2023/10/17 03:40:41;;;;;;;5.45;4.70;;;7.20;99.90;;;;;;4998759;28;20481;-71
2023/10/17 03:43:12;;;;;;;6.85;4.82;;;7.20;99.90;;;;;;4999940;28;21159;-71
2023/10/17 03:45:52;;;;;;;4.63;4.23;;;7.20;99.90;;;;;;4998727;28;20431;-70
2023/10/17 03:48:20;;;;;;;5.15;4.65;;;7.20;99.90;;;;;;4999582;28;20437;-71
2023/10/17 03:50:58;;;;;;;4.63;4.22;;;7.20;99.90;;;;;;4997495;28;20781;-71
2023/10/17 03:53:29;;;;;;;5.28;4.45;;;7.20;99.90;;;;;;4998451;28;20446;-71
2023/10/17 03:56:00;;;;;;;5.45;4.88;;;7.20;99.90;;;;;;5002328;28;20778;-71
2023/10/17 03:58:43;;;;;;;4.93;4.30;;;7.20;99.90;;;;;;5001536;28;20453;-70
2023/10/17 04:01:10;;;;;;;4.90;4.45;;;7.20;99.90;;;;;;4999730;28;20443;-70
2023/10/17 04:03:38;;;;;;;5.40;4.90;;;7.20;99.90;;;;;;5000434;28;20495;-70
2023/10/17 04:06:17;;;;;;;5.10;4.40;;;7.20;99.90;;;;;;4997462;28;20956;-70
2023/10/17 04:08:56;;;;;;;6.30;5.70;;;7.20;99.90;;;;;;4998075;28;21268;-69
2023/10/17 04:11:28;;;;;;;5.97;4.80;;;7.20;99.90;;;;;;4996391;28;20432;-71
2023/10/17 04:13:57;;;;;;;5.10;4.60;;;7.20;99.90;;;;;;5001727;28;20429;-71
2023/10/17 04:16:33;;;;;;;5.32;4.80;;;7.20;99.90;;;;;;5000670;28;20438;-72
2023/10/17 04:19:00;;;;;;;6.20;4.60;;;7.20;99.90;;;;;;4997435;28;20445;-72
2023/10/17 04:21:29;;;;;;;5.68;4.75;;;7.20;99.90;;;;;;5003902;28;20843;-71
2023/10/17 04:23:59;;;;;;;5.35;4.72;;;7.20;99.90;;;;;;4997404;28;20450;-71
2023/10/17 04:26:28;;;;;;;4.90;4.50;;;7.20;99.90;;;;;;4997485;28;20998;-71
2023/10/17 04:28:55;;;;;;;5.22;4.30;;;7.20;99.90;;;;;;5000135;28;20974;-71
2023/10/17 04:31:26;;;;;;;5.83;4.77;;;7.20;99.90;;;;;;4998361;28;20531;-70
2023/10/17 04:34:04;;;;;;;4.95;4.43;;;7.20;99.90;;;;;;5000406;28;20487;-69
2023/10/17 04:36:35;;;;;;;6.70;4.60;;;7.20;99.90;;;;;;5006222;28;20432;-70
2023/10/17 04:39:18;;;;;;;5.45;4.60;;;7.20;99.90;;;;;;5002045;28;20825;-70
2023/10/17 04:44:34;;;;;;;5.90;4.82;;;7.20;99.90;;;;;;5006553;28;20511;-71
2023/10/17 04:47:16;;;;;;;4.95;4.50;;;7.10;99.90;;;;;;5004532;28;20470;-71
2023/10/17 04:49:44;;;;;;;5.47;4.97;;;7.20;99.90;;;;;;5004616;28;20903;-70
2023/10/17 04:52:18;;;;;;;6.30;5.13;;;7.10;99.90;;;;;;5002758;28;20444;-70
2023/10/17 04:54:48;;;;;;;6.13;5.10;;;7.10;99.90;;;;;;5002611;28;20441;-70
2023/10/17 04:57:16;;;;;;;5.60;4.82;;;7.10;99.90;;;;;;4999353;28;20449;-70
2023/10/17 04:59:55;;;;;;;5.77;5.23;;;7.10;99.90;;;;;;5007562;28;20425;-71
2023/10/17 05:02:38;;;;;;;5.15;4.65;;;7.20;99.90;;;;;;5002112;28;20428;-71
2023/10/17 05:08:04;;;;;;;7.07;5.00;;;7.20;99.90;;;;;;5001247;28;20406;-72
2023/10/17 06:19:15;;;;;;;5.97;4.47;;;7.20;99.90;;;;;;4998885;28;20427;-71
2023/10/17 06:22:35;;;;;;;5.28;4.60;;;7.20;99.90;;;;;;5006230;28;20449;-71
2023/10/17 06:30:34;;;;;;;5.70;5.00;;;7.30;99.90;;;;;;5010929;28;20823;-71
2023/10/17 06:33:16;;;;;;;5.20;4.53;;;7.30;99.90;;;;;;5010291;28;20416;-72
2023/10/17 06:35:44;;;;;;;4.45;4.10;;;7.30;99.90;;;;;;5009012;28;20405;-71
2023/10/17 06:38:15;;;;;;;4.55;4.15;;;7.40;99.90;;;;;;5006716;28;20938;-71
2023/10/17 06:40:45;;;;;;;6.63;4.37;;;7.40;99.90;;;;;;5005945;28;20534;-72
2023/10/17 06:43:13;;;;;;;5.05;4.10;;;7.40;99.90;;;;;;5005533;28;20436;-71
2023/10/17 06:45:52;;;;;;;6.60;4.40;;;7.50;99.90;;;;;;5001711;28;20608;-71
2023/10/17 06:48:19;;;;;;;7.17;4.50;;;7.50;99.90;;;;;;5007165;28;20437;-71
2023/10/17 06:53:31;;;;;;;6.57;4.00;;;7.60;99.90;;;;;;5004277;28;20898;-70
2023/10/17 06:56:04;;;;;;;5.03;4.50;;;7.60;99.90;;;;;;5012122;28;20888;-71
2023/10/17 06:58:32;;;;;;;7.45;4.60;;;7.60;99.90;;;;;;5004342;28;20440;-70
2023/10/17 07:00:59;;;;;;;5.40;4.03;;;7.70;99.90;;;;;;5011759;28;20435;-71
2023/10/17 07:03:29;;;;;;;5.45;3.95;;;7.70;99.90;;;;;;5005287;28;20446;-70
2023/10/17 07:06:10;;;;;;;4.75;4.22;;;7.70;99.90;;;;;;5008874;28;20416;-71
2023/10/17 07:08:37;;;;;;;6.10;4.50;;;7.70;99.90;;;;;;5004664;28;20422;-71
2023/10/17 07:11:09;;;;;;;6.13;4.50;;;7.80;99.90;;;;;;5004162;28;20443;-71
2023/10/17 07:13:59;;;;;;;5.30;4.30;;;7.80;99.90;;;;;;5004650;28;20990;-71
2023/10/17 07:16:33;;;;;;;4.45;3.55;;;7.90;99.90;;;;;;5012282;28;20509;-71
2023/10/17 07:19:46;;;;;;;4.80;4.40;;;7.90;99.90;;;;;;5007383;28;20470;-71
2023/10/17 07:22:04;;;;;;;4.20;3.80;;;7.90;99.90;;;;;;5001361;28;20810;-72
2023/10/17 07:24:34;;;;;;;4.88;3.70;;;8.00;99.90;;;;;;5006057;28;20424;-70
2023/10/17 07:27:02;;;;;;;4.40;3.90;;;8.00;99.70;;;;;;5008356;28;20504;-71
2023/10/17 07:29:33;;;;;;;3.60;3.30;;;8.00;99.70;;;;;;5008874;28;20425;-71
2023/10/17 07:32:08;;;;;;;4.60;3.40;;;8.10;99.50;;;;;;4999056;28;20842;-71
2023/10/17 07:34:38;;;;;;;3.63;3.22;;;8.10;99.20;;;;;;4998559;28;20432;-71
2023/10/17 07:37:22;;;;;;;5.47;3.50;;;8.20;98.60;;;;;;5004119;28;20434;-70
2023/10/17 07:40:15;;;;;;;4.82;3.58;;;8.20;98.60;;;;;;5001971;28;20433;-72
2023/10/17 07:42:42;;;;;;;4.18;3.60;;;8.30;98.60;;;;;;5002739;28;20448;-70
2023/10/17 07:45:14;;;;;;;4.20;3.25;;;8.30;98.70;;;;;;5006360;28;20934;-70
2023/10/17 07:47:41;;;;;;;4.23;3.10;;;8.40;98.40;;;;;;4996671;28;20442;-71
2023/10/17 07:50:12;;;;;;;4.07;3.28;;;8.40;98.20;;;;;;5005933;28;20524;-71
2023/10/17 07:52:43;;;;;;;3.38;3.08;;;8.50;97.70;;;;;;5004037;28;20515;-71
2023/10/17 07:55:18;;;;;;;4.15;3.10;;;8.50;97.40;;;;;;5000927;28;20442;-71
2023/10/17 07:57:51;;;;;;;3.30;3.00;;;8.60;97.50;;;;;;5001211;28;20478;-70
2023/10/17 08:00:26;;;;;;;4.13;3.05;;;8.60;96.90;;;;;;5001777;28;20474;-70
2023/10/17 08:02:54;;;;;;;3.75;3.35;;;8.60;97.20;;;;;;5005416;28;20432;-70
2023/10/17 08:05:26;;;;;;;2.70;2.50;;;8.70;97.20;;;;;;5004322;28;20432;-70
2023/10/17 08:08:03;;;;;;;3.40;2.22;;;8.70;96.60;;;;;;5006226;28;20436;-70
2023/10/17 08:10:33;;;;;;;3.38;2.20;;;8.80;96.20;;;;;;5003979;28;20473;-70
2023/10/17 08:13:01;;;;;;;3.25;2.42;;;8.80;96.20;;;;;;5007050;28;20915;-70
2023/10/17 08:15:36;;;;;;;3.03;2.60;;;8.90;96.30;;;;;;5006291;28;20437;-71
2023/10/17 08:18:13;;;;;;;3.35;2.50;;;8.90;96.00;;;;;;5004685;28;20432;-71
2023/10/17 08:21:33;;;;;;;4.60;2.30;;;9.00;95.60;;;;;;4999156;28;20955;-71
2023/10/17 08:23:54;;;;;;;3.67;2.20;;;9.00;95.60;;;;;;5006079;28;20420;-70
2023/10/17 08:26:28;;;;;;;4.60;2.40;;;9.10;95.40;;;;;;5003570;28;20440;-70
2023/10/17 08:28:56;;;;;;;3.10;2.50;;;9.10;95.10;;;;;;5004317;28;20807;-70
2023/10/17 08:31:27;;;;;;;3.13;2.30;;;9.20;95.20;;;;;;5003376;28;20856;-72
2023/10/17 08:34:08;;;;;;;4.30;2.20;;;9.30;94.90;;;;;;4999315;28;20441;-70
2023/10/17 08:36:42;;;;;;;3.75;2.13;;;9.30;94.80;;;;;;5004665;28;20887;-71
2023/10/17 08:41:53;;;;;;;3.20;2.20;;;9.40;94.00;;;;;;5005080;28;20426;-70
2023/10/17 08:44:21;;;;;;;3.20;2.40;;;9.40;93.50;;;;;;5002987;28;20432;-71
2023/10/17 08:46:50;;;;;;;3.42;2.60;;;9.50;93.70;;;;;;5010002;28;20440;-71
2023/10/17 08:49:16;;;;;;;3.80;2.20;;;9.50;93.40;;;;;;5009040;28;20432;-70
2023/10/17 08:51:45;;;;;;;3.90;2.28;;;9.60;93.20;;;;;;5006236;28;20567;-71
2023/10/17 08:54:12;;;;;;;3.10;2.40;;;9.60;92.70;;;;;;5007573;28;20443;-70
2023/10/17 08:56:40;;;;;;;3.70;3.30;;;9.70;93.10;;;;;;5005653;28;20468;-70
2023/10/17 08:59:11;;;;;;;3.35;2.17;;;9.70;93.20;;;;;;5004840;28;20436;-71
2023/10/17 09:01:38;;;;;;;3.58;2.38;;;9.80;92.80;;;;;;5011991;28;20892;-71
2023/10/17 09:04:10;;;;;;;3.17;1.88;;;9.90;92.30;;;;;;5004465;28;20847;-71
2023/10/17 09:06:48;;;;;;;3.45;2.40;;;9.90;92.30;;;;;;5008293;28;20635;-71
2023/10/17 09:09:21;;;;;;;3.15;2.10;;;10.00;91.90;;;;;;5010681;28;20622;-71
2023/10/17 09:12:01;;;;;;;3.58;2.20;;;10.10;91.90;;;;;;5009770;28;20519;-72
2023/10/17 09:14:29;;;;;;;3.92;2.20;;;10.10;91.50;;;;;;5008922;28;20436;-71
2023/10/17 09:17:10;;;;;;;2.53;2.00;;;10.20;91.00;;;;;;5007039;28;20494;-72
2023/10/17 09:19:46;;;;;;;4.90;2.87;;;10.20;91.10;;;;;;5007766;28;20478;-70
2023/10/17 09:22:14;;;;;;;3.00;2.20;;;10.40;91.10;;;;;;5009930;28;20429;-70
2023/10/17 09:24:45;;;;;;;3.80;3.27;;;10.50;90.70;;;;;;5010097;28;20460;-70
2023/10/17 09:27:14;;;;;;;4.43;4.00;;;10.60;90.20;;;;;;5012000;28;20419;-70
2023/10/17 09:29:45;;;;;;;5.00;2.50;;;10.80;89.80;;;;;;5009707;28;20441;-70
2023/10/17 09:32:12;;;;;;;2.90;2.00;;;10.90;87.90;;;;;;5013351;28;20435;-70
2023/10/17 09:34:40;;;;;;;3.63;2.00;;;10.90;87.50;;;;;;5010384;28;20433;-72
2023/10/17 09:37:12;;;;;;;2.10;1.70;;;10.90;86.60;;;;;;5003258;28;20573;-71
2023/10/17 09:39:46;;;;;;;3.20;2.00;;;11.00;85.70;;;;;;5002042;28;20433;-71
2023/10/17 09:42:14;;;;;;;3.20;1.92;;;11.00;85.20;;;;;;5002766;28;20481;-70
2023/10/17 09:44:42;;;;;;;3.78;2.22;;;11.00;85.10;;;;;;5003002;28;20436;-71
2023/10/17 09:47:10;;;;;;;3.35;1.75;;;10.90;84.60;;;;;;5000077;28;20445;-70
2023/10/17 09:49:40;;;;;;;3.72;1.83;;;11.00;85.00;;;;;;5009445;28;20508;-70
2023/10/17 09:52:09;;;;;;;2.00;1.80;;;11.10;84.90;;;;;;5000838;28;20433;-70
2023/10/17 09:54:40;;;;;;;3.03;1.80;;;11.40;84.00;;;;;;5009911;28;20447;-70
2023/10/17 09:57:09;;;;;;;2.30;1.90;;;11.60;82.00;;;;;;5005580;28;20417;-70
2023/10/17 09:59:44;;;;;;;2.90;1.80;;;11.80;81.00;;;;;;5008162;28;20413;-70
2023/10/17 10:02:17;;;;;;;3.30;1.70;;;11.80;80.30;;;;;;5011057;28;20524;-73
2023/10/17 10:04:44;;;;;;;3.03;1.90;;;11.80;80.30;;;;;;5002325;28;20478;-70
2023/10/17 10:07:21;;;;;;;3.90;2.20;;;11.80;80.80;;;;;;5007547;28;20594;-71
2023/10/17 10:09:48;;;;;;;2.70;1.90;;;11.70;80.30;;;;;;5003835;28;20418;-70
2023/10/17 10:12:15;;;;;;;2.20;2.00;;;11.70;80.80;;;;;;5008469;28;20864;-70
2023/10/17 10:14:49;;;;;;;2.97;1.80;;;11.80;81.20;;;;;;5009934;28;20436;-70
2023/10/17 10:17:17;;;;;;;2.33;1.90;;;11.90;80.40;;;;;;5009043;28;20522;-70
2023/10/17 10:20:04;;;;;;;3.22;1.80;;;12.00;79.50;;;;;;5005302;28;20417;-70
2023/10/17 10:22:52;;;;;;;2.15;1.90;;;12.10;80.50;;;;;;5011151;28;20428;-70
2023/10/17 10:25:20;;;;;;;2.30;1.60;;;12.20;79.10;;;;;;5004589;28;20439;-70
2023/10/17 10:27:49;;;;;;;2.08;1.70;;;12.30;78.70;;;;;;5009741;28;20516;-71
2023/10/17 10:30:43;;;;;;;2.47;1.50;;;12.70;78.20;;;;;;5008661;28;20435;-70
2023/10/17 10:33:11;;;;;;;2.50;1.90;;;13.20;75.80;;;;;;5007174;28;20419;-68
2023/10/17 10:35:42;;;;;;;4.03;1.80;;;13.60;75.20;;;;;;5007812;28;20428;-68
2023/10/17 10:38:09;;;;;;;2.90;1.60;;;14.00;71.80;;;;;;5010672;28;20873;-71
2023/10/17 10:40:40;;;;;;;2.97;1.50;;;14.40;68.90;;;;;;5001805;28;20440;-71
2023/10/17 10:43:09;;;;;;;2.03;1.70;;;14.70;65.70;;;;;;5010628;28;20443;-71
2023/10/17 10:45:42;;;;;;;2.40;1.60;;;14.80;63.20;;;;;;5001984;28;20757;-71
2023/10/17 10:48:14;;;;;;;2.40;1.55;;;14.90;62.90;;;;;;5009773;28;20420;-72
2023/10/17 10:50:42;;;;;;;2.10;1.80;;;14.90;60.70;;;;;;5008823;28;20519;-71
2023/10/17 10:53:20;;;;;;;2.40;1.88;;;14.90;57.90;;;;;;5000691;28;20432;-71
2023/10/17 10:55:52;;;;;;;3.42;1.63;;;14.80;58.00;;;;;;5000616;28;20432;-66
2023/10/17 10:58:19;;;;;;;2.58;1.60;;;14.90;57.60;;;;;;5005433;28;20461;-68
2023/10/17 11:00:48;;;;;;;2.80;1.50;;;15.10;57.70;;;;;;5004961;28;20478;-69
2023/10/17 11:03:15;;;;;;;2.53;1.50;;;15.30;57.50;;;;;;5007098;28;20432;-69
2023/10/17 11:05:58;;;;;;;2.35;1.40;;;15.50;56.60;;;;;;5006863;28;20435;-67
2023/10/17 11:08:25;;;;;;;2.70;1.50;;;15.70;55.50;;;;;;5006196;28;20443;-68
2023/10/17 11:11:00;;;;;;;2.90;1.48;;;15.90;54.00;;;;;;5016207;28;20433;-67
2023/10/17 11:13:32;;;;;;;1.60;1.30;;;16.10;53.20;;;;;;5023368;28;20461;-64
2023/10/17 11:16:00;;;;;;;3.05;1.60;;;16.00;52.60;;;;;;5011613;28;20873;-68
2023/10/17 11:18:28;;;;;;;1.97;1.50;;;16.00;52.80;;;;;;5002489;28;20441;-67
2023/10/17 11:20:55;;;;;;;2.97;1.63;;;16.00;52.80;;;;;;5008755;28;20436;-69
2023/10/17 11:23:26;;;;;;;2.30;1.80;;;15.80;51.30;;;;;;5008905;28;20413;-68
2023/10/17 11:25:54;;;;;;;2.28;1.80;;;15.50;50.90;;;;;;5001647;28;20430;-67
2023/10/17 11:28:22;;;;;;;3.20;2.00;;;15.30;53.10;;;;;;5006614;28;20440;-67
2023/10/17 11:30:50;;;;;;;2.60;1.90;;;15.30;53.20;;;;;;5007667;28;20412;-68
2023/10/17 11:33:24;;;;;;;2.55;1.63;;;15.40;53.30;;;;;;5008340;28;20428;-68
2023/10/17 11:35:55;;;;;;;2.72;2.00;;;15.60;54.30;;;;;;5004341;28;20432;-68
2023/10/17 11:38:33;;;;;;;2.43;1.70;;;15.90;55.60;;;;;;5006658;28;20482;-67
2023/10/17 11:41:01;;;;;;;2.03;1.30;;;16.30;54.30;;;;;;5003557;28;20817;-68
2023/10/17 11:43:33;;;;;;;4.28;1.90;;;16.60;50.60;;;;;;5007958;28;20466;-67
2023/10/17 11:46:00;;;;;;;2.90;1.90;;;16.60;50.30;;;;;;5009581;28;20919;-67
2023/10/17 11:48:31;;;;;;;2.80;1.60;;;16.70;50.20;;;;;;5003592;28;20440;-67
2023/10/17 11:51:05;;;;;;;2.10;1.45;;;16.80;49.00;;;;;;5006327;28;20931;-67
2023/10/17 11:53:32;;;;;;;2.00;1.47;;;16.90;48.90;;;;;;5002332;28;20952;-67
2023/10/17 11:56:01;;;;;;;2.60;1.70;;;16.90;48.80;;;;;;5012320;28;20433;-68
2023/10/17 11:58:29;;;;;;;3.00;1.90;;;17.00;48.60;;;;;;5009265;28;20932;-69
2023/10/17 12:00:56;;;;;;;2.00;1.67;;;17.00;47.50;;;;;;5007639;28;20520;-69
2023/10/17 12:03:26;;;;;;;1.90;1.52;;;16.70;47.90;;;;;;5007591;28;20435;-68
2023/10/17 12:05:54;;;;;;;2.00;1.53;;;16.60;48.00;;;;;;5007565;28;20436;-69
2023/10/17 12:08:29;;;;;;;1.88;1.67;;;16.70;49.90;;;;;;5002843;28;20434;-67
2023/10/17 12:10:56;;;;;;;2.00;1.50;;;16.80;48.60;;;;;;5001374;28;20447;-68
2023/10/17 12:13:23;;;;;;;2.63;1.55;;;16.90;48.40;;;;;;5011508;28;20422;-69
2023/10/17 12:15:49;;;;;;;1.70;1.50;;;17.10;47.80;;;;;;5008565;28;20432;-69
2023/10/17 12:18:16;;;;;;;2.38;1.50;;;17.30;47.50;;;;;;5005071;28;20726;-68
2023/10/17 12:20:48;;;;;;;1.90;1.52;;;17.50;47.20;;;;;;5004713;28;20435;-68
2023/10/17 12:23:18;;;;;;;2.03;1.60;;;17.60;45.60;;;;;;5005078;28;20420;-68
2023/10/17 12:25:45;;;;;;;3.35;1.45;;;17.60;45.20;;;;;;5008759;28;20796;-69
2023/10/17 12:28:12;;;;;;;1.90;1.40;;;17.50;45.10;;;;;;5006471;28;20922;-71
2023/10/17 12:30:39;;;;;;;1.90;1.70;;;17.60;45.60;;;;;;5000778;28;20432;-69
2023/10/17 12:33:05;;;;;;;2.00;1.50;;;17.60;44.40;;;;;;5008374;28;20795;-69
2023/10/17 12:35:33;;;;;;;2.10;1.57;;;17.70;44.90;;;;;;5005941;28;20428;-69
2023/10/17 12:38:06;;;;;;;2.05;1.70;;;17.80;45.10;;;;;;5000807;28;20440;-70
2023/10/17 12:40:34;;;;;;;1.80;1.50;;;18.00;45.30;;;;;;5003596;28;20432;-68
2023/10/17 12:43:01;;;;;;;2.05;1.70;;;18.00;43.90;;;;;;5006455;28;20433;-68
2023/10/17 12:45:30;;;;;;;2.55;1.30;;;18.20;43.60;;;;;;5002753;28;20438;-70
2023/10/17 12:47:56;;;;;;;2.00;1.50;;;18.20;44.40;;;;;;5005334;28;20471;-70
2023/10/17 12:50:23;;;;;;;2.10;1.20;;;18.10;43.90;;;;;;5007362;28;20502;-69
2023/10/17 12:52:50;;;;;;;1.75;1.30;;;18.10;42.70;;;;;;5008042;28;20498;-68
2023/10/17 12:55:19;;;;;;;2.00;1.40;;;18.10;43.20;;;;;;5003238;28;20447;-69
2023/10/17 12:57:47;;;;;;;1.98;1.20;;;17.90;42.70;;;;;;5007327;28;20503;-68
2023/10/17 13:00:15;;;;;;;2.40;1.70;;;17.90;44.20;;;;;;5002382;28;20470;-68
2023/10/17 13:02:42;;;;;;;2.00;1.58;;;18.00;43.40;;;;;;5009326;28;20442;-69
2023/10/17 13:05:10;;;;;;;2.45;1.60;;;18.00;43.80;;;;;;5000636;28;20443;-69
2023/10/17 13:07:37;;;;;;;2.17;1.30;;;18.10;44.10;;;;;;5005611;28;20437;-68
2023/10/17 13:10:05;;;;;;;2.20;1.50;;;18.30;44.10;;;;;;5008893;28;20440;-69
2023/10/17 13:12:32;;;;;;;3.47;1.27;;;18.30;42.80;;;;;;5002113;28;20515;-70
2023/10/17 13:15:00;;;;;;;1.90;1.10;;;18.20;41.30;;;;;;5001364;28;20495;-71
2023/10/17 13:17:28;;;;;;;3.15;1.70;;;18.00;42.80;;;;;;5003752;28;20436;-68
2023/10/17 13:19:57;;;;;;;1.75;1.45;;;18.00;43.10;;;;;;5001523;28;20492;-68
2023/10/17 13:22:24;;;;;;;1.70;1.50;;;18.10;42.90;;;;;;5002636;28;20451;-68
2023/10/17 13:24:50;;;;;;;2.10;1.50;;;18.10;43.20;;;;;;5005897;28;20444;-71
2023/10/17 13:27:17;;;;;;;1.50;1.20;;;18.10;43.00;;;;;;5007045;28;20699;-68
2023/10/17 13:29:44;;;;;;;1.77;1.40;;;18.10;42.30;;;;;;5005049;28;20436;-70
2023/10/17 13:32:12;;;;;;;2.08;1.40;;;18.10;41.50;;;;;;5005432;28;20433;-68
2023/10/17 13:34:39;;;;;;;1.63;1.35;;;18.10;42.00;;;;;;5009540;28;20947;-68
2023/10/17 13:37:07;;;;;;;1.92;1.35;;;18.10;41.60;;;;;;5011182;28;20855;-68
2023/10/17 13:39:34;;;;;;;1.70;1.35;;;17.90;41.30;;;;;;5008746;28;20918;-67
2023/10/17 13:42:03;;;;;;;2.03;1.45;;;17.70;42.10;;;;;;5008980;28;20432;-68
2023/10/17 13:44:30;;;;;;;2.00;1.40;;;17.70;42.10;;;;;;5007183;28;20498;-68
2023/10/17 13:46:57;;;;;;;2.22;1.40;;;17.70;42.70;;;;;;5025891;22;20460;-72
2023/10/17 13:49:27;;;;;;;2.70;1.30;;;17.70;41.60;;;;;;5000930;28;20514;-71
2023/10/17 13:51:54;;;;;;;2.20;1.40;;;17.60;42.90;;;;;;5001563;28;20628;-72
2023/10/17 13:54:21;;;;;;;1.60;1.33;;;17.80;43.30;;;;;;4995365;28;20434;-73
2023/10/17 13:56:47;;;;;;;2.38;1.50;;;17.90;43.10;;;;;;4995214;28;20604;-72
2023/10/17 13:59:14;;;;;;;2.00;1.40;;;18.10;42.00;;;;;;4984523;28;20446;-72
2023/10/17 14:01:46;;;;;;;2.72;1.50;;;18.20;40.60;;;;;;4996069;28;20436;-72
2023/10/17 14:04:13;;;;;;;1.80;1.30;;;18.10;41.20;;;;;;4983971;28;20508;-72
2023/10/17 14:06:42;;;;;;;1.95;1.40;;;18.00;40.90;;;;;;4997435;28;20439;-73
2023/10/17 14:09:15;;;;;;;1.80;1.38;;;17.90;41.60;;;;;;4988559;28;20440;-73
2023/10/17 14:11:43;;;;;;;1.70;1.50;;;17.70;41.70;;;;;;4999969;28;20506;-74
2023/10/17 14:14:10;;;;;;;1.77;1.50;;;17.50;41.30;;;;;;5001029;28;21077;-72
2023/10/17 14:16:41;;;;;;;1.80;1.20;;;17.50;41.10;;;;;;4997367;28;20504;-73
2023/10/17 14:19:15;;;;;;;1.98;1.30;;;17.30;41.70;;;;;;4990935;28;20689;-72
2023/10/17 14:21:47;;;;;;;2.15;1.33;;;17.20;42.40;;;;;;4987452;28;20543;-76
2023/10/17 14:24:26;;;;;;;1.50;1.20;;;17.10;42.20;;;;;;4994329;28;20438;-76
2023/10/17 14:26:53;;;;;;;2.70;1.45;;;17.00;42.30;;;;;;4991908;28;20755;-75
2023/10/17 14:29:21;;;;;;;1.88;1.23;;;16.90;41.90;;;;;;4985328;28;20434;-75
2023/10/17 14:31:48;;;;;;;1.50;1.40;;;16.80;42.20;;;;;;4991767;28;20786;-75
2023/10/17 14:34:15;;;;;;;1.65;1.27;;;16.70;43.10;;;;;;4987965;28;20457;-75
2023/10/17 14:36:44;;;;;;;1.30;1.10;;;16.70;42.90;;;;;;4992870;28;20578;-74